Time;durP1;ratioP1;P1;durP2;ratioP2;P2;SDS_P1;SDS_P2;PMS_P1;PMS_P2;Temp;Humidity;BMP_temperature;BMP_pressure;BME280_temperature;BME280_humidity;BME280_pressure;Samples;Min_cycle;Max_cycle;Signal;HPM_P1;HPM_P2
2023/08/04 00:01:52;;;;;;;3.00;1.50;;;12.60;99.90;;;;;;4941485;29;20048;-86
2023/08/04 00:04:39;;;;;;;5.75;1.40;;;12.50;1.00;;;;;;4946872;29;20040;-87
2023/08/04 00:07:27;;;;;;;2.00;1.25;;;12.40;1.00;;;;;;4940283;29;20459;-89
2023/08/04 00:10:16;;;;;;;2.38;1.27;;;12.30;51.50;;;;;;4937724;29;20047;-88
2023/08/04 00:13:06;;;;;;;9.55;1.48;;;12.20;99.90;;;;;;4935699;29;20460;-89
2023/08/04 00:15:53;;;;;;;1.73;1.20;;;12.20;99.90;;;;;;4922270;29;20047;-87
2023/08/04 00:18:40;;;;;;;4.60;1.30;;;12.20;99.90;;;;;;4938381;29;20063;-86
2023/08/04 00:21:27;;;;;;;3.50;1.20;;;12.20;99.90;;;;;;4946340;29;20048;-87
2023/08/04 00:24:17;;;;;;;2.38;1.25;;;12.20;99.90;;;;;;4940060;29;20047;-89
2023/08/04 00:27:04;;;;;;;3.58;1.80;;;12.10;99.90;;;;;;4939473;29;20604;-88
2023/08/04 00:29:52;;;;;;;4.63;1.30;;;12.10;99.90;;;;;;4929879;29;20044;-88
2023/08/04 00:32:39;;;;;;;4.28;1.88;;;12.10;99.90;;;;;;4928019;29;20391;-89
2023/08/04 00:35:28;;;;;;;5.85;1.50;;;12.00;99.90;;;;;;4937045;29;20044;-88
2023/08/04 00:38:18;;;;;;;2.35;1.48;;;11.90;99.90;;;;;;4927080;29;20050;-90
2023/08/04 00:41:05;;;;;;;6.35;1.75;;;11.80;99.90;;;;;;4936393;29;20551;-88
2023/08/04 00:43:52;;;;;;;5.45;1.60;;;11.90;99.90;;;;;;4944895;29;20074;-89
2023/08/04 00:46:40;;;;;;;2.42;1.38;;;11.90;99.90;;;;;;4973568;29;20058;-88
2023/08/04 00:49:27;;;;;;;4.35;1.20;;;11.90;99.90;;;;;;4958786;29;20055;-86
2023/08/04 00:52:15;;;;;;;7.15;2.10;;;11.90;99.90;;;;;;4948716;29;20192;-88
2023/08/04 00:55:03;;;;;;;8.98;1.60;;;11.80;99.90;;;;;;4940853;28;20478;-86
2023/08/04 00:57:51;;;;;;;2.17;1.65;;;11.90;99.90;;;;;;4941239;28;20444;-87
2023/08/04 01:00:39;;;;;;;7.05;1.55;;;11.90;99.90;;;;;;4936637;29;20362;-88
2023/08/04 01:03:27;;;;;;;2.97;1.40;;;11.90;99.90;;;;;;4922129;29;20475;-88
2023/08/04 01:06:48;;;;;;;7.65;1.48;;;12.00;99.90;;;;;;4936053;29;20048;-89
2023/08/04 01:10:00;;;;;;;3.67;1.42;;;12.00;99.90;;;;;;4934645;28;20056;-88
2023/08/04 01:13:03;;;;;;;5.85;1.50;;;12.10;99.90;;;;;;4940675;29;20036;-89
2023/08/04 01:15:52;;;;;;;4.15;1.30;;;12.10;99.90;;;;;;4925282;29;20392;-88
2023/08/04 01:18:40;;;;;;;4.18;1.23;;;12.20;99.90;;;;;;4925582;29;20077;-88
2023/08/04 01:21:39;;;;;;;3.65;1.50;;;12.30;99.90;;;;;;4929560;29;20051;-90
2023/08/04 01:24:26;;;;;;;5.28;1.70;;;12.40;99.90;;;;;;4946674;29;20055;-86
2023/08/04 01:27:17;;;;;;;1.35;1.02;;;12.50;99.90;;;;;;4944406;29;20067;-87
2023/08/04 01:30:09;;;;;;;3.50;1.30;;;12.40;99.90;;;;;;4942220;28;20369;-88
2023/08/04 01:32:57;;;;;;;2.08;1.23;;;12.40;99.90;;;;;;4933929;29;20043;-88
2023/08/04 01:35:44;;;;;;;2.38;1.27;;;12.40;99.90;;;;;;4939944;29;20479;-86
2023/08/04 01:38:31;;;;;;;2.95;1.55;;;12.30;99.90;;;;;;4924640;29;20043;-87
2023/08/04 01:41:19;;;;;;;3.65;1.70;;;12.30;99.90;;;;;;4943039;29;20051;-87
2023/08/04 01:44:06;;;;;;;5.43;1.40;;;12.20;99.90;;;;;;4926343;29;20052;-88
2023/08/04 01:46:53;;;;;;;5.43;1.52;;;12.20;99.90;;;;;;4935911;28;20063;-90
2023/08/04 01:49:41;;;;;;;5.20;1.40;;;12.20;99.90;;;;;;4942036;29;20051;-89
2023/08/04 01:52:29;;;;;;;3.60;1.23;;;12.20;99.90;;;;;;4942251;29;20051;-85
2023/08/04 01:55:16;;;;;;;2.47;1.30;;;12.30;99.90;;;;;;4931185;29;20418;-90
2023/08/04 01:58:03;;;;;;;1.20;1.10;;;12.30;99.90;;;;;;4934048;29;20055;-88
2023/08/04 02:00:51;;;;;;;2.28;1.45;;;12.50;99.90;;;;;;4936026;29;20120;-89
2023/08/04 02:03:38;;;;;;;3.45;1.40;;;12.60;99.90;;;;;;4936274;29;20051;-88
2023/08/04 02:06:25;;;;;;;7.00;1.33;;;12.70;99.90;;;;;;4940663;29;20052;-87
2023/08/04 02:09:13;;;;;;;3.42;1.10;;;12.70;26.50;;;;;;4938624;29;20467;-90
2023/08/04 02:12:01;;;;;;;5.43;1.30;;;12.80;1.00;;;;;;4930572;29;20111;-89
2023/08/04 02:14:51;;;;;;;1.83;1.05;;;12.80;99.90;;;;;;4928906;29;20115;-88
2023/08/04 02:17:38;;;;;;;1.90;1.08;;;12.80;99.90;;;;;;4928046;29;20051;-88
2023/08/04 02:20:26;;;;;;;2.50;1.35;;;12.90;99.90;;;;;;4924184;28;20066;-89
2023/08/04 02:23:13;;;;;;;1.63;1.23;;;12.90;1.00;;;;;;4915706;29;20051;-90
2023/08/04 02:26:00;;;;;;;4.60;1.30;;;12.80;1.00;;;;;;4936936;29;20055;-89
2023/08/04 02:28:49;;;;;;;2.85;1.20;;;12.80;1.00;;;;;;4921986;29;20054;-90
2023/08/04 02:31:40;;;;;;;4.32;1.00;;;12.90;1.00;;;;;;4918222;29;20043;-91
2023/08/04 02:34:28;;;;;;;2.83;1.25;;;13.00;1.00;;;;;;4947472;29;20471;-89
2023/08/04 02:37:18;;;;;;;3.35;1.05;;;13.00;99.90;;;;;;4923186;29;20466;-90
2023/08/04 02:40:05;;;;;;;2.85;0.93;;;13.00;99.90;;;;;;4933205;29;20051;-89
2023/08/04 02:42:53;;;;;;;4.47;1.10;;;13.00;46.40;;;;;;4942790;29;20075;-89
2023/08/04 02:45:55;;;;;;;3.42;1.38;;;13.00;1.00;;;;;;4930265;29;20048;-89
2023/08/04 02:48:42;;;;;;;2.10;0.90;;;12.90;99.90;;;;;;4929976;29;20055;-90
2023/08/04 02:51:31;;;;;;;4.55;1.20;;;12.80;99.90;;;;;;4940571;29;20299;-88
2023/08/04 02:54:19;;;;;;;1.75;1.05;;;12.80;1.00;;;;;;4940408;29;20492;-87
2023/08/04 02:57:06;;;;;;;3.08;1.00;;;12.80;99.90;;;;;;4927319;29;20424;-90
2023/08/04 02:59:55;;;;;;;2.90;1.73;;;12.70;99.90;;;;;;4938294;29;20052;-90
2023/08/04 03:02:43;;;;;;;0.95;0.80;;;12.80;99.90;;;;;;4936725;29;20047;-88
2023/08/04 03:05:34;;;;;;;2.38;1.02;;;12.90;99.90;;;;;;4938806;29;20067;-89
2023/08/04 03:08:22;;;;;;;2.80;1.60;;;12.90;10.80;;;;;;4941357;29;20062;-89
2023/08/04 03:11:12;;;;;;;2.88;0.80;;;12.90;1.00;;;;;;4934242;29;20047;-89
2023/08/04 03:14:02;;;;;;;4.65;1.20;;;12.90;99.90;;;;;;4938746;28;20065;-89
2023/08/04 03:16:52;;;;;;;3.38;1.20;;;13.00;99.90;;;;;;4945321;29;20039;-88
2023/08/04 03:19:39;;;;;;;6.72;1.42;;;13.00;99.90;;;;;;4935657;29;20048;-90
2023/08/04 03:22:30;;;;;;;3.88;1.35;;;13.00;99.90;;;;;;4932313;29;20052;-89
2023/08/04 03:25:17;;;;;;;3.15;1.17;;;13.00;99.90;;;;;;4938471;29;20122;-90
2023/08/04 03:28:07;;;;;;;3.78;1.20;;;13.00;99.90;;;;;;4931433;29;20044;-88
2023/08/04 03:30:54;;;;;;;2.60;1.20;;;12.90;99.90;;;;;;4940537;28;20044;-89
2023/08/04 03:33:41;;;;;;;4.60;1.10;;;12.90;99.90;;;;;;4923896;28;20054;-89
2023/08/04 03:36:28;;;;;;;5.22;0.98;;;13.00;99.90;;;;;;4946843;28;20058;-88
2023/08/04 03:39:18;;;;;;;7.43;1.40;;;13.00;99.90;;;;;;4927205;29;20055;-89
2023/08/04 03:42:08;;;;;;;5.18;1.30;;;13.00;99.90;;;;;;4940728;29;20459;-91
2023/08/04 03:44:56;;;;;;;3.67;1.00;;;13.00;99.90;;;;;;4944629;29;20347;-90
2023/08/04 03:47:45;;;;;;;2.60;1.23;;;13.10;64.00;;;;;;4936798;29;20158;-89
2023/08/04 03:50:33;;;;;;;2.17;1.02;;;13.10;1.00;;;;;;4917482;29;20055;-90
2023/08/04 03:53:20;;;;;;;3.35;1.15;;;13.20;1.00;;;;;;4933453;29;20047;-89
2023/08/04 03:56:10;;;;;;;4.45;1.10;;;13.20;99.90;;;;;;4921188;29;20055;-89
2023/08/04 03:58:57;;;;;;;3.33;1.05;;;13.20;1.00;;;;;;4938391;29;20059;-89
2023/08/04 04:05:52;;;;;;;1.77;1.38;;;13.30;99.90;;;;;;4955602;29;20051;-88
2023/08/04 04:08:42;;;;;;;3.45;1.55;;;13.20;99.90;;;;;;4942831;29;20054;-89
2023/08/04 04:11:29;;;;;;;2.83;1.13;;;13.20;99.90;;;;;;4955344;29;20039;-90
2023/08/04 04:14:43;;;;;;;2.03;1.10;;;13.20;99.90;;;;;;4931607;29;20063;-90
2023/08/04 04:29:50;;;;;;;2.92;1.35;;;13.00;99.90;;;;;;4924682;29;20498;-88
2023/08/04 04:33:09;;;;;;;3.95;1.00;;;12.90;99.90;;;;;;4937536;29;20214;-89
2023/08/04 05:01:34;;;;;;;4.72;1.20;;;12.90;99.90;;;;;;4826846;29;20129;-85
2023/08/04 05:04:22;;;;;;;2.92;1.20;;;12.90;99.90;;;;;;4884235;29;20155;-86
2023/08/04 05:07:12;;;;;;;4.65;1.70;;;13.00;99.90;;;;;;4891676;29;20044;-88
2023/08/04 05:10:02;;;;;;;4.43;1.50;;;13.10;1.00;;;;;;4908338;29;20154;-88
2023/08/04 05:12:52;;;;;;;2.90;1.40;;;13.10;99.90;;;;;;4896002;29;20060;-85
2023/08/04 05:15:39;;;;;;;3.15;1.30;;;13.30;1.00;;;;;;4893705;29;20755;-88
2023/08/04 05:18:27;;;;;;;2.60;0.93;;;13.40;99.90;;;;;;4897492;29;20784;-87
2023/08/04 05:21:16;;;;;;;4.78;1.27;;;13.60;99.90;;;;;;4907315;29;20055;-85
2023/08/04 05:24:04;;;;;;;2.92;1.10;;;13.60;1.00;;;;;;4936073;29;20158;-86
2023/08/04 05:26:51;;;;;;;3.55;1.20;;;13.70;99.90;;;;;;4940182;29;20055;-85
2023/08/04 05:29:40;;;;;;;2.88;1.05;;;13.70;99.90;;;;;;4916866;29;20514;-85
2023/08/04 05:32:28;;;;;;;3.00;1.05;;;13.80;1.00;;;;;;4940570;29;20076;-86
2023/08/04 05:35:16;;;;;;;3.65;1.20;;;14.00;99.90;;;;;;4937565;29;20043;-84
2023/08/04 05:38:06;;;;;;;1.85;0.90;;;14.10;99.90;;;;;;4934773;29;20062;-85
2023/08/04 05:40:54;;;;;;;2.35;1.13;;;14.30;1.00;;;;;;4922314;29;20060;-86
2023/08/04 05:43:44;;;;;;;2.67;1.08;;;14.40;99.90;;;;;;4932248;29;20059;-85
2023/08/04 05:46:38;;;;;;;2.88;1.02;;;14.50;1.00;;;;;;4936656;29;20048;-91
2023/08/04 05:49:25;;;;;;;2.72;0.93;;;14.50;99.90;;;;;;4919679;29;20058;-88
2023/08/04 05:52:13;;;;;;;1.75;0.93;;;14.60;99.90;;;;;;4935243;29;20040;-91
2023/08/04 05:55:03;;;;;;;4.13;1.20;;;14.70;99.90;;;;;;4928592;29;20052;-88
2023/08/04 05:57:55;;;;;;;4.00;1.27;;;14.80;99.90;;;;;;4925099;29;20059;-90
2023/08/04 06:00:45;;;;;;;3.83;1.00;;;15.00;99.90;;;;;;4938545;29;20044;-91
2023/08/04 06:03:33;;;;;;;2.83;0.93;;;15.30;37.90;;;;;;4923963;29;20043;-92
2023/08/04 06:06:22;;;;;;;1.85;0.90;;;15.40;1.00;;;;;;4944114;28;20115;-90
2023/08/04 06:09:16;;;;;;;3.97;0.93;;;15.50;1.00;;;;;;4945452;29;20064;-94
2023/08/04 06:12:06;;;;;;;2.53;1.10;;;15.50;1.00;;;;;;4926991;29;20062;-91
2023/08/04 06:14:55;;;;;;;5.95;1.20;;;15.70;1.00;;;;;;4936763;29;20135;-91
2023/08/04 06:17:45;;;;;;;2.67;1.10;;;15.90;99.90;;;;;;4942331;29;20043;-90
2023/08/04 06:20:33;;;;;;;1.60;0.85;;;16.10;99.90;;;;;;4942221;29;20065;-89
2023/08/04 06:23:23;;;;;;;4.13;1.02;;;16.30;1.00;;;;;;4943822;29;20048;-89
2023/08/04 06:26:10;;;;;;;3.53;1.08;;;16.40;99.90;;;;;;4925081;29;20066;-91
2023/08/04 06:29:00;;;;;;;3.53;1.25;;;16.40;99.90;;;;;;4939090;28;20044;-91
2023/08/04 06:32:07;;;;;;;3.85;0.98;;;16.30;99.90;;;;;;4923779;29;20083;-94
2023/08/04 06:35:06;;;;;;;2.35;1.02;;;16.30;1.00;;;;;;4936975;29;20058;-92
2023/08/04 06:37:59;;;;;;;2.33;0.90;;;16.30;1.00;;;;;;4939743;29;20059;-92
2023/08/04 06:40:47;;;;;;;1.30;0.90;;;16.40;1.00;;;;;;4934005;29;20130;-89
2023/08/04 06:43:34;;;;;;;5.68;1.00;;;16.50;99.90;;;;;;4922854;29;20102;-92
2023/08/04 06:46:22;;;;;;;6.47;1.25;;;16.70;99.90;;;;;;4932289;29;20051;-93
2023/08/04 06:49:09;;;;;;;4.80;1.20;;;16.70;99.90;;;;;;4941373;29;20040;-94
2023/08/04 06:51:58;;;;;;;4.78;0.93;;;16.90;22.40;;;;;;4932338;29;20071;-93
2023/08/04 06:54:55;;;;;;;2.35;1.00;;;16.90;1.00;;;;;;4934956;29;20494;-92
2023/08/04 06:57:43;;;;;;;3.38;1.00;;;17.00;1.00;;;;;;4932293;29;20035;-92
2023/08/04 07:00:32;;;;;;;3.58;0.82;;;17.20;1.00;;;;;;4941392;29;20391;-92
2023/08/04 07:03:19;;;;;;;2.50;0.95;;;17.30;1.00;;;;;;4914813;29;20054;-92
2023/08/04 07:06:14;;;;;;;2.30;0.70;;;17.50;1.00;;;;;;4936959;29;20052;-91
2023/08/04 07:09:04;;;;;;;8.50;2.38;;;17.60;99.90;;;;;;4932365;29;20039;-92
2023/08/04 07:11:56;;;;;;;2.75;0.90;;;17.40;99.90;;;;;;4928564;29;20040;-90
2023/08/04 07:14:45;;;;;;;6.13;3.22;;;17.20;99.90;;;;;;4938677;29;20168;-92
2023/08/04 07:17:33;;;;;;;2.95;0.98;;;17.30;99.90;;;;;;4931812;29;20052;-90
2023/08/04 07:20:21;;;;;;;2.47;0.90;;;17.40;99.90;;;;;;4940743;29;20051;-91
2023/08/04 07:23:09;;;;;;;3.85;0.85;;;17.40;99.90;;;;;;4935584;29;20131;-92
2023/08/04 07:25:56;;;;;;;3.08;0.88;;;17.50;99.90;;;;;;4932355;29;20091;-91
2023/08/04 07:28:48;;;;;;;7.72;0.80;;;17.60;99.90;;;;;;4935398;29;20071;-91
2023/08/04 07:31:36;;;;;;;4.32;1.20;;;17.70;99.90;;;;;;4942972;29;20031;-93
2023/08/04 07:34:23;;;;;;;3.15;1.00;;;17.80;99.90;;;;;;4938746;29;20047;-92
2023/08/04 07:37:14;;;;;;;2.72;1.20;;;18.10;99.90;;;;;;4937215;28;20629;-90
2023/08/04 07:40:01;;;;;;;3.55;0.77;;;18.40;76.10;;;;;;4938999;29;20138;-89
2023/08/04 07:42:49;;;;;;;2.65;0.80;;;18.70;17.20;;;;;;4924164;28;20048;-92
2023/08/04 07:45:36;;;;;;;3.40;0.82;;;18.60;1.00;;;;;;4933056;29;20945;-91
2023/08/04 07:48:24;;;;;;;3.95;1.08;;;18.60;1.00;;;;;;4936903;29;20055;-90
2023/08/04 07:51:11;;;;;;;2.63;0.98;;;18.70;1.00;;;;;;4939638;28;20137;-90
2023/08/04 07:53:59;;;;;;;2.60;0.95;;;18.60;1.00;;;;;;4939476;29;20051;-92
2023/08/04 07:56:51;;;;;;;1.92;0.90;;;18.90;1.00;;;;;;4927073;29;20143;-93
2023/08/04 07:59:38;;;;;;;3.80;0.60;;;19.30;1.00;;;;;;4928288;29;20127;-91
2023/08/04 08:02:25;;;;;;;3.75;1.20;;;19.50;1.00;;;;;;4934884;29;20056;-90
2023/08/04 08:05:13;;;;;;;2.15;1.10;;;19.50;1.00;;;;;;4931536;29;20066;-91
2023/08/04 08:08:03;;;;;;;2.05;0.80;;;19.40;1.00;;;;;;4933417;29;20055;-93
2023/08/04 08:10:57;;;;;;;3.65;0.77;;;19.10;1.00;;;;;;4934756;29;20039;-92
2023/08/04 08:13:45;;;;;;;2.42;0.73;;;19.00;1.00;;;;;;4931928;29;20048;-92
2023/08/04 08:16:35;;;;;;;2.30;0.93;;;19.30;1.00;;;;;;4922973;29;20177;-90
2023/08/04 08:19:23;;;;;;;4.25;1.02;;;19.10;1.00;;;;;;4935854;29;20129;-90
2023/08/04 08:22:10;;;;;;;1.95;0.65;;;18.80;1.00;;;;;;4944233;29;20055;-92
2023/08/04 08:25:00;;;;;;;3.30;0.90;;;18.60;1.00;;;;;;4938810;29;20047;-90
2023/08/04 08:27:47;;;;;;;3.22;0.77;;;19.20;1.00;;;;;;4940887;29;20063;-89
2023/08/04 08:30:35;;;;;;;1.48;0.65;;;20.00;1.00;;;;;;4929751;29;20518;-91
2023/08/04 08:33:26;;;;;;;2.13;0.70;;;20.40;99.90;;;;;;4940449;29;20048;-90
2023/08/04 08:36:14;;;;;;;2.83;0.65;;;20.90;99.90;;;;;;4946255;29;20044;-92
2023/08/04 08:39:02;;;;;;;4.40;0.77;;;20.90;99.90;;;;;;4925699;29;20130;-91
2023/08/04 08:41:49;;;;;;;3.25;0.85;;;20.60;99.90;;;;;;4940736;29;20047;-91
2023/08/04 08:44:37;;;;;;;6.68;0.95;;;20.00;99.90;;;;;;4948216;29;20064;-94
2023/08/04 08:47:37;;;;;;;4.95;1.40;;;19.80;99.90;;;;;;4938217;29;20051;-92
2023/08/04 08:50:28;;;;;;;4.50;0.80;;;19.50;99.90;;;;;;4930044;29;20502;-93
2023/08/04 08:53:23;;;;;;;4.95;0.80;;;19.40;99.90;;;;;;4929923;28;20059;-91
2023/08/04 08:56:13;;;;;;;2.97;0.88;;;19.60;99.90;;;;;;4951806;29;20054;-91
2023/08/04 08:59:01;;;;;;;1.80;0.80;;;19.90;99.90;;;;;;4951693;28;20375;-91
2023/08/04 09:01:49;;;;;;;1.08;0.65;;;20.10;99.90;;;;;;4940303;29;20348;-90
2023/08/04 09:04:38;;;;;;;6.20;0.95;;;20.20;99.90;;;;;;4949955;29;20139;-92
2023/08/04 09:07:28;;;;;;;2.25;0.70;;;20.40;99.90;;;;;;4948020;29;20062;-91
2023/08/04 09:10:16;;;;;;;2.72;0.70;;;21.70;99.90;;;;;;4939273;29;20047;-90
2023/08/04 09:13:09;;;;;;;0.95;0.50;;;22.90;99.90;;;;;;4951543;29;20047;-94
2023/08/04 09:16:00;;;;;;;2.33;0.70;;;22.80;99.90;;;;;;4929665;29;20083;-93
2023/08/04 09:18:48;;;;;;;2.58;0.50;;;22.70;99.90;;;;;;4925912;29;20064;-92
2023/08/04 09:21:36;;;;;;;1.15;0.32;;;23.00;99.90;;;;;;4955852;29;20094;-93
2023/08/04 09:24:24;;;;;;;0.90;0.60;;;23.30;99.90;;;;;;4946200;28;20051;-84
2023/08/04 09:27:29;;;;;;;1.63;0.50;;;24.20;99.90;;;;;;4961862;28;20051;-89
2023/08/04 09:30:20;;;;;;;1.15;0.50;;;25.50;99.90;;;;;;4954352;28;20062;-85
2023/08/04 09:33:11;;;;;;;2.03;0.60;;;25.50;99.90;;;;;;4963009;28;20059;-90
2023/08/04 09:36:06;;;;;;;2.17;0.60;;;24.30;99.90;;;;;;4963760;29;20047;-89
2023/08/04 09:39:02;;;;;;;1.42;0.60;;;23.20;99.90;;;;;;4947372;29;20052;-92
2023/08/04 09:41:51;;;;;;;1.52;0.70;;;22.20;99.90;;;;;;4942043;29;20047;-90
2023/08/04 09:44:38;;;;;;;2.28;0.50;;;21.50;99.90;;;;;;4936511;29;20052;-90
2023/08/04 09:47:30;;;;;;;2.75;0.80;;;21.40;99.90;;;;;;4940723;29;20159;-90
2023/08/04 09:50:21;;;;;;;1.75;1.08;;;21.40;99.90;;;;;;4948327;28;20044;-90
2023/08/04 09:53:08;;;;;;;3.33;0.85;;;20.50;99.90;;;;;;4927423;28;20131;-90
2023/08/04 09:55:56;;;;;;;3.20;0.75;;;20.00;99.90;;;;;;4940344;29;20384;-91
2023/08/04 09:58:48;;;;;;;0.93;0.60;;;19.60;99.90;;;;;;4937978;29;20052;-89
2023/08/04 10:01:39;;;;;;;1.85;0.80;;;19.00;1.00;;;;;;4937156;29;20063;-93
2023/08/04 10:04:27;;;;;;;4.32;1.00;;;18.40;66.70;;;;;;4939067;29;20075;-91
2023/08/04 10:07:19;;;;;;;4.10;1.20;;;18.00;99.90;;;;;;4956775;29;20097;-90
2023/08/04 10:10:09;;;;;;;4.30;1.27;;;17.80;29.60;;;;;;4969709;28;20034;-85
2023/08/04 10:12:57;;;;;;;5.00;1.20;;;17.70;99.90;;;;;;4976281;28;20120;-88
2023/08/04 10:15:45;;;;;;;6.80;1.50;;;17.70;99.90;;;;;;4939628;29;20069;-91
2023/08/04 10:19:06;;;;;;;3.67;1.45;;;17.60;99.90;;;;;;4946918;29;20419;-93
2023/08/04 10:22:04;;;;;;;5.25;1.42;;;17.90;1.00;;;;;;4907408;29;20052;-91
2023/08/04 10:25:11;;;;;;;3.33;1.17;;;18.00;1.00;;;;;;4945064;29;20067;-92
2023/08/04 10:27:58;;;;;;;2.42;1.25;;;18.40;99.90;;;;;;4941709;29;20428;-89
2023/08/04 10:30:48;;;;;;;4.22;1.38;;;18.80;99.90;;;;;;4960624;28;20055;-93
2023/08/04 10:33:36;;;;;;;3.00;1.25;;;19.60;99.90;;;;;;4938546;29;20050;-90
2023/08/04 10:36:25;;;;;;;3.80;1.30;;;20.00;1.00;;;;;;4937797;29;20044;-93
2023/08/04 10:39:27;;;;;;;3.45;1.13;;;20.30;1.00;;;;;;4935865;29;20055;-93
2023/08/04 10:42:44;;;;;;;2.60;1.08;;;20.70;99.90;;;;;;4938878;29;20051;-92
2023/08/04 10:46:02;;;;;;;1.70;0.80;;;21.10;99.90;;;;;;4942649;29;20139;-91
2023/08/04 10:48:49;;;;;;;1.40;0.60;;;21.90;13.90;;;;;;4934025;29;20043;-87
2023/08/04 10:51:37;;;;;;;1.73;0.60;;;22.90;99.90;;;;;;4934535;29;20435;-93
2023/08/04 10:54:27;;;;;;;2.38;0.82;;;23.90;99.90;;;;;;4927445;29;20055;-92
2023/08/04 10:57:27;;;;;;;1.45;0.60;;;24.80;6.20;;;;;;4919183;29;20040;-94
2023/08/04 11:00:15;;;;;;;3.15;0.63;;;26.70;99.90;;;;;;4945276;29;20103;-93
2023/08/04 11:03:02;;;;;;;1.05;0.50;;;27.10;99.90;;;;;;4935077;29;20489;-92
2023/08/04 11:05:51;;;;;;;1.05;0.50;;;25.80;99.90;;;;;;4952982;29;20099;-91
2023/08/04 11:08:39;;;;;;;2.75;0.85;;;24.00;99.90;;;;;;4952641;29;20035;-91
2023/08/04 11:11:34;;;;;;;2.22;0.60;;;22.60;99.90;;;;;;4939395;29;20114;-91
2023/08/04 11:14:24;;;;;;;2.97;1.02;;;21.10;99.90;;;;;;4939588;29;20107;-92
2023/08/04 11:17:13;;;;;;;3.92;1.00;;;20.00;1.00;;;;;;4942964;29;20053;-91
2023/08/04 11:20:01;;;;;;;4.47;0.98;;;19.10;99.80;;;;;;4945923;29;20090;-90
2023/08/04 11:22:51;;;;;;;4.45;1.17;;;18.40;99.90;;;;;;4939600;29;20498;-91
2023/08/04 11:25:40;;;;;;;3.45;1.20;;;17.90;1.00;;;;;;4940246;29;20059;-90
2023/08/04 11:28:28;;;;;;;2.28;1.27;;;17.40;1.00;;;;;;4941058;29;20052;-88
2023/08/04 11:31:22;;;;;;;3.28;1.70;;;17.00;99.90;;;;;;4937687;29;20047;-89
2023/08/04 11:34:18;;;;;;;4.38;1.65;;;16.90;44.10;;;;;;4947556;29;20538;-89
2023/08/04 11:37:06;;;;;;;3.53;1.58;;;16.80;99.90;;;;;;4938569;29;20130;-88
2023/08/04 11:39:53;;;;;;;3.88;2.00;;;16.70;99.90;;;;;;4941795;29;20056;-88
2023/08/04 11:42:44;;;;;;;4.35;2.10;;;16.70;99.90;;;;;;4939362;29;20407;-90
2023/08/04 11:45:34;;;;;;;4.22;2.60;;;16.90;99.90;;;;;;4939165;29;20055;-89
2023/08/04 11:48:23;;;;;;;5.95;3.03;;;17.00;99.90;;;;;;4919619;29;20050;-90
2023/08/04 11:51:11;;;;;;;7.88;3.20;;;17.20;99.90;;;;;;4933112;29;20206;-90
2023/08/04 11:53:58;;;;;;;3.90;2.65;;;17.40;99.90;;;;;;4944531;29;20050;-89
2023/08/04 11:56:55;;;;;;;8.43;2.95;;;17.60;99.90;;;;;;4919176;29;20111;-91
2023/08/04 11:59:47;;;;;;;5.65;3.10;;;18.00;99.90;;;;;;4933645;29;20072;-89
2023/08/04 12:02:54;;;;;;;6.72;2.85;;;18.40;99.90;;;;;;4921257;29;20115;-87
2023/08/04 12:05:42;;;;;;;7.10;2.60;;;19.00;99.90;;;;;;4942335;29;20116;-88
2023/08/04 12:08:30;;;;;;;5.78;2.05;;;19.60;99.90;;;;;;4950174;29;20039;-87
2023/08/04 12:11:18;;;;;;;5.72;1.88;;;20.00;99.90;;;;;;4959230;28;20080;-86
2023/08/04 12:14:07;;;;;;;4.53;1.42;;;21.10;99.90;;;;;;4937747;29;20051;-90
2023/08/04 12:17:01;;;;;;;4.22;1.35;;;22.30;1.00;;;;;;4922295;29;20055;-92
2023/08/04 12:19:50;;;;;;;2.88;1.30;;;22.60;1.00;;;;;;4938758;29;20047;-90
2023/08/04 12:22:38;;;;;;;2.83;0.95;;;22.60;99.90;;;;;;4938049;29;20147;-91
2023/08/04 12:25:28;;;;;;;2.75;0.90;;;22.80;1.00;;;;;;4934187;29;20468;-91
2023/08/04 12:28:16;;;;;;;2.42;0.70;;;23.50;99.90;;;;;;4937433;29;20043;-91
2023/08/04 12:31:11;;;;;;;1.88;0.80;;;23.10;1.00;;;;;;4943904;29;20079;-92
2023/08/04 12:34:06;;;;;;;4.03;0.93;;;22.40;99.90;;;;;;4936343;29;20047;-94
2023/08/04 12:36:53;;;;;;;1.38;0.80;;;21.60;1.00;;;;;;4921487;29;20054;-90
2023/08/04 12:39:44;;;;;;;2.47;1.00;;;21.30;1.00;;;;;;4940851;29;20055;-90
2023/08/04 12:42:31;;;;;;;0.95;0.80;;;20.70;18.20;;;;;;4937451;29;20473;-93
2023/08/04 12:45:18;;;;;;;0.88;0.60;;;20.90;99.90;;;;;;4929441;28;20107;-93
2023/08/04 12:48:06;;;;;;;0.80;0.63;;;21.60;99.90;;;;;;4942427;29;20048;-92
2023/08/04 12:50:54;;;;;;;1.83;0.60;;;23.00;99.90;;;;;;4932656;29;20447;-93
2023/08/04 12:53:42;;;;;;;2.83;0.70;;;24.30;99.90;;;;;;4943326;28;20048;-93
2023/08/04 12:56:31;;;;;;;2.05;0.50;;;23.90;99.90;;;;;;4946777;29;20048;-93
2023/08/04 12:59:19;;;;;;;2.05;0.60;;;23.30;74.40;;;;;;4930065;29;20063;-92
2023/08/04 13:02:07;;;;;;;2.28;0.73;;;22.40;1.00;;;;;;4944361;29;20121;-94
2023/08/04 13:04:57;;;;;;;1.10;0.60;;;21.50;20.90;;;;;;4930743;29;20123;-92
2023/08/04 13:07:46;;;;;;;3.08;0.68;;;20.50;99.90;;;;;;4955567;29;20075;-92
2023/08/04 13:10:34;;;;;;;1.10;0.60;;;19.70;99.90;;;;;;4933014;29;20096;-91
2023/08/04 13:13:28;;;;;;;2.20;0.70;;;19.00;99.90;;;;;;4942799;29;20040;-92
2023/08/04 13:16:18;;;;;;;2.30;1.10;;;18.50;99.90;;;;;;4948652;29;20062;-90
2023/08/04 13:19:08;;;;;;;3.55;1.00;;;18.00;99.90;;;;;;4946787;29;20055;-90
2023/08/04 13:21:56;;;;;;;1.73;0.88;;;17.90;99.90;;;;;;4932310;29;20071;-90
2023/08/04 13:24:43;;;;;;;2.00;1.48;;;17.70;1.00;;;;;;4946534;29;20055;-92
2023/08/04 13:27:33;;;;;;;1.92;1.25;;;17.40;99.90;;;;;;4926913;29;20048;-90
2023/08/04 13:30:21;;;;;;;1.90;1.73;;;17.00;1.00;;;;;;4939012;29;20043;-93
2023/08/04 13:33:08;;;;;;;2.38;1.90;;;16.90;1.00;;;;;;4926213;29;20050;-90
2023/08/04 13:35:56;;;;;;;3.90;2.15;;;16.70;1.00;;;;;;4925616;29;20048;-91
2023/08/04 13:38:43;;;;;;;2.55;2.35;;;16.50;63.70;;;;;;4946744;29;20039;-92
2023/08/04 13:41:34;;;;;;;2.33;2.13;;;16.50;99.90;;;;;;4945433;28;20083;-91
2023/08/04 13:44:22;;;;;;;4.75;2.83;;;16.40;99.90;;;;;;4943954;29;20066;-90
2023/08/04 13:47:09;;;;;;;5.03;3.95;;;16.40;99.90;;;;;;4936405;29;20086;-93
2023/08/04 13:49:57;;;;;;;4.13;3.17;;;16.40;99.90;;;;;;4937451;29;20063;-92
2023/08/04 13:52:46;;;;;;;5.10;3.80;;;16.40;99.90;;;;;;4937124;29;20072;-91
2023/08/04 13:55:35;;;;;;;5.00;3.42;;;16.30;99.90;;;;;;4937955;29;20044;-91
2023/08/04 13:58:23;;;;;;;5.00;3.45;;;16.40;99.90;;;;;;4937758;29;20461;-90
2023/08/04 14:01:13;;;;;;;3.95;3.55;;;16.30;99.90;;;;;;4939219;29;20107;-90
2023/08/04 14:04:01;;;;;;;4.53;3.80;;;16.30;99.90;;;;;;4945853;29;20391;-88
2023/08/04 14:06:51;;;;;;;5.80;3.90;;;16.40;99.90;;;;;;4925990;29;20062;-91
2023/08/04 14:09:43;;;;;;;5.30;4.35;;;16.30;99.90;;;;;;4940180;29;20048;-91
2023/08/04 14:12:32;;;;;;;4.90;3.70;;;16.40;99.90;;;;;;4927112;29;20040;-90
2023/08/04 14:15:21;;;;;;;5.93;4.22;;;16.50;99.90;;;;;;4943829;29;20185;-91
2023/08/04 14:18:09;;;;;;;4.88;4.20;;;16.50;99.90;;;;;;4939042;29;20099;-89
2023/08/04 14:20:59;;;;;;;8.43;4.22;;;16.60;99.90;;;;;;4952714;29;20070;-90
2023/08/04 14:23:47;;;;;;;5.03;4.05;;;16.60;99.90;;;;;;4934534;29;20150;-88
2023/08/04 14:26:34;;;;;;;4.40;3.33;;;16.80;99.90;;;;;;4938208;29;20190;-88
2023/08/04 14:29:21;;;;;;;3.50;3.20;;;16.90;99.90;;;;;;4938592;29;20474;-89
2023/08/04 14:32:16;;;;;;;3.70;3.30;;;16.90;99.90;;;;;;4943357;29;20476;-88
2023/08/04 14:35:07;;;;;;;5.45;3.58;;;17.00;99.90;;;;;;4929502;29;20475;-89
2023/08/04 14:37:54;;;;;;;4.88;3.63;;;17.10;99.90;;;;;;4941789;29;20043;-87
2023/08/04 14:40:42;;;;;;;4.57;3.10;;;17.10;99.90;;;;;;4929521;29;20052;-88
2023/08/04 14:43:36;;;;;;;3.40;3.10;;;17.10;99.90;;;;;;4937048;29;20138;-88
2023/08/04 14:46:54;;;;;;;3.75;3.40;;;17.20;99.90;;;;;;4946759;29;20062;-86
2023/08/04 14:50:42;;;;;;;3.55;3.25;;;17.30;99.90;;;;;;4941672;29;20459;-85
2023/08/04 14:53:29;;;;;;;3.28;2.58;;;17.60;99.90;;;;;;4841743;29;20166;-88
2023/08/04 14:56:19;;;;;;;3.90;2.47;;;18.10;99.90;;;;;;4841114;29;20076;-87
2023/08/04 14:59:20;;;;;;;3.88;2.72;;;18.30;99.90;;;;;;4846323;29;20141;-89
2023/08/04 15:02:11;;;;;;;3.00;2.70;;;18.90;99.90;;;;;;4850854;29;20061;-89
2023/08/04 15:04:59;;;;;;;2.97;2.30;;;19.20;99.90;;;;;;4900722;29;20052;-88
2023/08/04 15:07:46;;;;;;;3.78;2.47;;;19.20;1.00;;;;;;4936008;29;20078;-90
2023/08/04 15:10:34;;;;;;;4.28;2.58;;;19.10;1.00;;;;;;4928566;28;20040;-90
2023/08/04 15:13:21;;;;;;;3.28;2.55;;;19.00;99.90;;;;;;4937516;29;20059;-90
2023/08/04 15:16:10;;;;;;;4.20;2.90;;;18.80;99.90;;;;;;4929984;29;20063;-89
2023/08/04 15:18:57;;;;;;;3.90;2.95;;;18.60;31.70;;;;;;4935196;29;20074;-88
2023/08/04 15:21:45;;;;;;;5.85;3.10;;;18.60;99.90;;;;;;4922497;29;20070;-88
2023/08/04 15:24:32;;;;;;;5.10;3.60;;;18.50;99.90;;;;;;4939534;29;20052;-90
2023/08/04 15:27:19;;;;;;;8.80;4.15;;;18.30;1.00;;;;;;4937942;29;20051;-90
2023/08/04 15:30:07;;;;;;;5.07;4.07;;;18.30;99.90;;;;;;4950466;28;20455;-89